Time;durP1;ratioP1;P1;durP2;ratioP2;P2;SDS_P1;SDS_P2;PMS_P1;PMS_P2;Temp;Humidity;BMP_temperature;BMP_pressure;BME280_temperature;BME280_humidity;BME280_pressure;Samples;Min_cycle;Max_cycle;Signal;HPM_P1;HPM_P2
2022/03/25 00:01:57;;;;;;;;;;;9.70;70.50;;;;;;6213301;23;19924;-93
2022/03/25 00:04:35;;;;;;;;;;;;;;;;;;;;;
2022/03/25 00:07:12;;;;;;;;;;;9.60;70.90;;;;;;6189851;23;19967;-91
2022/03/25 00:09:43;;;;;;;;;;;9.50;70.90;;;;;;6209743;23;20020;-93
2022/03/25 00:12:14;;;;;;;;;;;9.50;71.10;;;;;;6213787;23;19897;-94
2022/03/25 00:14:45;;;;;;;;;;;9.40;71.20;;;;;;6212849;23;19951;-91
2022/03/25 00:17:11;;;;;;;;;;;9.40;71.20;;;;;;6211219;23;19900;-92
2022/03/25 00:19:36;;;;;;;;;;;9.40;71.30;;;;;;6212968;23;19909;-92
2022/03/25 00:22:07;;;;;;;;;;;9.30;71.30;;;;;;6212578;23;20242;-92
2022/03/25 00:24:36;;;;;;;;;;;9.30;71.50;;;;;;6187676;23;19908;-91
2022/03/25 00:27:09;;;;;;;;;;;9.20;71.50;;;;;;6187013;23;19908;-92
2022/03/25 00:29:44;;;;;;;;;;;9.20;71.70;;;;;;6211482;23;19954;-90
2022/03/25 00:32:19;;;;;;;;;;;;;;;;;;;;;
2022/03/25 00:34:53;;;;;;;;;;;9.10;71.80;;;;;;6188133;23;19983;-91
2022/03/25 00:37:19;;;;;;;;;;;9.10;71.70;;;;;;6211672;23;19955;-89
2022/03/25 00:39:45;;;;;;;;;;;9.20;71.70;;;;;;6186399;23;20287;-91
2022/03/25 00:42:16;;;;;;;;;;;9.10;71.60;;;;;;6211530;23;19963;-91
2022/03/25 00:44:42;;;;;;;;;;;9.10;71.70;;;;;;6211616;23;19915;-90
2022/03/25 00:47:07;;;;;;;;;;;9.10;71.80;;;;;;6191540;23;19907;-90
2022/03/25 00:49:35;;;;;;;;;;;9.10;71.90;;;;;;6191614;23;20306;-90
2022/03/25 00:52:01;;;;;;;;;;;9.10;71.90;;;;;;6191218;23;20225;-92
2022/03/25 00:54:30;;;;;;;;;;;9.00;71.90;;;;;;6216087;23;19956;-91
2022/03/25 00:56:58;;;;;;;;;;;9.00;72.00;;;;;;6218017;23;19911;-91
2022/03/25 00:59:23;;;;;;;;;;;8.90;72.10;;;;;;6217791;23;19915;-92
2022/03/25 01:01:52;;;;;;;;;;;8.90;72.10;;;;;;6191268;23;19912;-91
2022/03/25 01:04:20;;;;;;;;;;;8.90;72.10;;;;;;6191681;23;19951;-91
2022/03/25 01:06:46;;;;;;;;;;;8.90;72.10;;;;;;6191659;23;19904;-92
2022/03/25 01:09:11;;;;;;;;;;;8.90;72.20;;;;;;6190991;23;19911;-92
2022/03/25 01:11:39;;;;;;;;;;;8.90;71.90;;;;;;6191049;23;19927;-90
2022/03/25 01:14:41;;;;;;;;;;;;;;;;;;;;;
2022/03/25 01:17:07;;;;;;;;;;;8.80;71.80;;;;;;6210185;23;19995;-92
2022/03/25 01:19:38;;;;;;;;;;;8.90;71.80;;;;;;6191432;23;20299;-91
2022/03/25 01:22:04;;;;;;;;;;;8.90;71.70;;;;;;6191093;23;19912;-92
2022/03/25 01:24:32;;;;;;;;;;;8.90;71.50;;;;;;6191133;23;20034;-90
2022/03/25 01:27:06;;;;;;;;;;;8.90;72.00;;;;;;6166788;23;19908;-92
2022/03/25 01:29:47;;;;;;;;;;;8.90;71.50;;;;;;6191849;23;20079;-93
2022/03/25 01:32:13;;;;;;;;;;;8.90;71.70;;;;;;6191791;23;20352;-93
2022/03/25 01:34:41;;;;;;;;;;;8.80;71.90;;;;;;6191376;23;19904;-92
2022/03/25 01:37:11;;;;;;;;;;;8.80;72.20;;;;;;6191300;23;19974;-92
2022/03/25 01:39:44;;;;;;;;;;;8.70;72.40;;;;;;6167817;23;19915;-92
2022/03/25 01:42:10;;;;;;;;;;;8.60;72.60;;;;;;6192972;23;19912;-93
2022/03/25 01:44:46;;;;;;;;;;;8.60;72.80;;;;;;6214200;22;19908;-90
2022/03/25 01:47:30;;;;;;;;;;;8.50;73.00;;;;;;6217081;23;19927;-93
2022/03/25 01:50:02;;;;;;;;;;;8.50;73.30;;;;;;6212220;23;19956;-91
2022/03/25 01:52:28;;;;;;;;;;;8.40;73.60;;;;;;6198574;23;19950;-92
2022/03/25 01:55:15;;;;;;;;;;;8.30;73.80;;;;;;6194646;23;19908;-91
2022/03/25 01:57:49;;;;;;;;;;;8.30;73.90;;;;;;6196157;23;19947;-91
2022/03/25 02:00:17;;;;;;;;;;;8.20;74.10;;;;;;6193002;23;20390;-92
2022/03/25 02:02:43;;;;;;;;;;;8.20;74.30;;;;;;6218090;23;19912;-92
2022/03/25 02:05:12;;;;;;;;;;;8.10;74.50;;;;;;6191204;23;20270;-91
2022/03/25 02:07:47;;;;;;;;;;;;;;;;;;;;;
2022/03/25 02:10:16;;;;;;;;;;;8.00;74.90;;;;;;6217437;23;20007;-91
2022/03/25 02:12:52;;;;;;;;;;;7.90;74.90;;;;;;6191713;23;19943;-91
2022/03/25 02:15:18;;;;;;;;;;;7.80;75.00;;;;;;6190831;23;19935;-91
2022/03/25 02:17:58;;;;;;;;;;;7.80;75.30;;;;;;6190810;23;19908;-91
2022/03/25 02:20:32;;;;;;;;;;;7.80;75.60;;;;;;6167188;23;19930;-89
2022/03/25 02:22:59;;;;;;;;;;;7.70;75.70;;;;;;6167338;23;19916;-92
2022/03/25 02:25:29;;;;;;;;;;;7.60;75.80;;;;;;6191099;23;19904;-91
2022/03/25 02:27:56;;;;;;;;;;;7.60;75.90;;;;;;6190871;23;19964;-92
2022/03/25 02:30:22;;;;;;;;;;;7.50;76.00;;;;;;6190789;23;19903;-90
2022/03/25 02:32:52;;;;;;;;;;;7.50;76.10;;;;;;6191099;23;19983;-90
2022/03/25 02:35:37;;;;;;;;;;;7.50;76.20;;;;;;6191789;23;19931;-91
2022/03/25 02:38:05;;;;;;;;;;;7.50;76.30;;;;;;6191490;23;19904;-91
2022/03/25 02:40:34;;;;;;;;;;;7.40;76.40;;;;;;6190845;23;19950;-91
2022/03/25 02:43:00;;;;;;;;;;;7.40;76.50;;;;;;6191058;23;20319;-92
2022/03/25 02:45:28;;;;;;;;;;;7.30;76.50;;;;;;6190288;23;19999;-92
2022/03/25 02:47:54;;;;;;;;;;;7.30;76.60;;;;;;6217384;23;20317;-91
2022/03/25 02:50:21;;;;;;;;;;;7.30;76.70;;;;;;6190500;23;19908;-91
2022/03/25 02:52:54;;;;;;;;;;;7.20;76.70;;;;;;6191322;23;19911;-90
2022/03/25 02:55:22;;;;;;;;;;;7.20;76.80;;;;;;6190635;23;19910;-90
2022/03/25 02:57:47;;;;;;;;;;;7.20;76.80;;;;;;6166856;23;19908;-92
2022/03/25 03:00:23;;;;;;;;;;;;;;;;;;;;;
2022/03/25 03:02:51;;;;;;;;;;;7.10;77.10;;;;;;6216809;23;19987;-83
2022/03/25 03:05:17;;;;;;;;;;;7.10;77.10;;;;;;6191844;23;19904;-85
2022/03/25 03:07:46;;;;;;;;;;;7.10;77.20;;;;;;6192590;23;19904;-83
2022/03/25 03:10:12;;;;;;;;;;;7.10;77.20;;;;;;6219246;23;19946;-85
2022/03/25 03:12:38;;;;;;;;;;;7.10;77.40;;;;;;6192819;23;20361;-84
2022/03/25 03:15:06;;;;;;;;;;;7.10;77.50;;;;;;6195837;23;19928;-84
2022/03/25 03:17:32;;;;;;;;;;;7.10;77.60;;;;;;6202535;23;19905;-84
2022/03/25 03:20:00;;;;;;;;;;;7.00;77.70;;;;;;6220024;23;19896;-84
2022/03/25 03:22:25;;;;;;;;;;;7.00;77.80;;;;;;6219400;22;19900;-85
2022/03/25 03:24:51;;;;;;;;;;;7.00;78.00;;;;;;6205003;23;20369;-83
2022/03/25 03:27:19;;;;;;;;;;;7.00;78.10;;;;;;6192781;23;19904;-83
2022/03/25 03:29:45;;;;;;;;;;;7.00;78.20;;;;;;6192657;23;19916;-83
2022/03/25 03:32:13;;;;;;;;;;;6.90;78.20;;;;;;6192485;23;19908;-83
2022/03/25 03:34:41;;;;;;;;;;;7.00;78.40;;;;;;6192380;23;19912;-83
2022/03/25 03:37:09;;;;;;;;;;;7.00;78.40;;;;;;6192831;23;19982;-84
2022/03/25 03:39:37;;;;;;;;;;;7.00;78.60;;;;;;6192375;23;19998;-84
2022/03/25 03:42:03;;;;;;;;;;;7.00;78.60;;;;;;6192316;23;19911;-83
2022/03/25 03:44:36;;;;;;;;;;;7.00;78.70;;;;;;6192048;23;20302;-84
2022/03/25 03:47:02;;;;;;;;;;;7.00;78.70;;;;;;6192447;23;20366;-84
2022/03/25 03:49:28;;;;;;;;;;;6.90;78.80;;;;;;6217321;23;19908;-83
2022/03/25 03:51:56;;;;;;;;;;;6.90;78.80;;;;;;6192225;23;19912;-83
2022/03/25 03:54:25;;;;;;;;;;;6.90;79.00;;;;;;6192349;23;19904;-84
2022/03/25 03:56:50;;;;;;;;;;;6.90;79.10;;;;;;6192533;23;19908;-83
2022/03/25 03:59:16;;;;;;;;;;;6.90;79.30;;;;;;6167410;23;20383;-83
2022/03/25 04:01:42;;;;;;;;;;;6.80;79.30;;;;;;6192214;23;19940;-83
2022/03/25 04:04:09;;;;;;;;;;;6.80;79.30;;;;;;6192505;23;19911;-83
2022/03/25 04:06:35;;;;;;;;;;;6.80;80.10;;;;;;6219162;23;20230;-84
2022/03/25 04:09:01;;;;;;;;;;;6.80;79.60;;;;;;6191928;23;19962;-84
2022/03/25 04:11:26;;;;;;;;;;;6.80;79.70;;;;;;6218444;23;19911;-84
2022/03/25 04:13:55;;;;;;;;;;;6.90;79.80;;;;;;6191484;23;19904;-84
2022/03/25 04:16:22;;;;;;;;;;;6.90;79.70;;;;;;6191581;23;19974;-84
2022/03/25 04:18:48;;;;;;;;;;;7.00;80.00;;;;;;6191640;23;19904;-84
2022/03/25 04:21:17;;;;;;;;;;;7.00;79.90;;;;;;6191987;23;19912;-84
2022/03/25 04:23:45;;;;;;;;;;;7.00;80.00;;;;;;6191960;23;19910;-84
2022/03/25 04:26:12;;;;;;;;;;;7.10;80.20;;;;;;6191637;23;19927;-84
2022/03/25 04:28:38;;;;;;;;;;;7.10;80.10;;;;;;6191722;23;19904;-84
2022/03/25 04:31:04;;;;;;;;;;;7.10;80.30;;;;;;6191456;23;19915;-84
2022/03/25 04:33:32;;;;;;;;;;;7.10;80.30;;;;;;6191532;23;19930;-84
2022/03/25 04:35:58;;;;;;;;;;;7.10;80.50;;;;;;6192209;23;19904;-84
2022/03/25 04:38:23;;;;;;;;;;;7.10;80.70;;;;;;6192277;23;20229;-84
2022/03/25 04:40:49;;;;;;;;;;;7.00;80.70;;;;;;6220723;23;19911;-84
2022/03/25 04:43:15;;;;;;;;;;;7.00;80.90;;;;;;6180541;23;19912;-83
2022/03/25 04:45:40;;;;;;;;;;;6.90;80.90;;;;;;6239073;23;19916;-84
2022/03/25 04:48:07;;;;;;;;;;;6.90;81.20;;;;;;6192747;23;19908;-83
2022/03/25 04:50:32;;;;;;;;;;;6.90;81.40;;;;;;6211268;23;19904;-83
2022/03/25 04:52:58;;;;;;;;;;;6.80;81.50;;;;;;6198988;23;19904;-83
2022/03/25 04:55:26;;;;;;;;;;;6.80;81.70;;;;;;6192810;23;20244;-84
2022/03/25 04:57:52;;;;;;;;;;;6.80;81.90;;;;;;6191841;23;19908;-84
2022/03/25 05:00:18;;;;;;;;;;;6.80;82.00;;;;;;6191498;23;19908;-84
2022/03/25 05:02:44;;;;;;;;;;;6.70;82.00;;;;;;6191957;23;19912;-84
2022/03/25 05:05:10;;;;;;;;;;;6.70;82.20;;;;;;6191950;23;19950;-84
2022/03/25 05:07:39;;;;;;;;;;;6.70;82.30;;;;;;6191510;23;19904;-83
2022/03/25 05:10:07;;;;;;;;;;;6.70;82.40;;;;;;6191436;23;20250;-84
2022/03/25 05:12:33;;;;;;;;;;;6.60;82.50;;;;;;6191387;23;19915;-83
2022/03/25 05:14:59;;;;;;;;;;;6.70;82.60;;;;;;6191543;23;19904;-85
2022/03/25 05:17:25;;;;;;;;;;;6.60;82.70;;;;;;6191473;23;19915;-84
2022/03/25 05:19:54;;;;;;;;;;;6.60;83.40;;;;;;6191160;23;19904;-84
2022/03/25 05:22:22;;;;;;;;;;;6.60;82.90;;;;;;6217506;23;19912;-83
2022/03/25 05:24:48;;;;;;;;;;;6.60;82.90;;;;;;6191240;23;20238;-83
2022/03/25 05:27:17;;;;;;;;;;;6.60;83.10;;;;;;6190947;23;19904;-84
2022/03/25 05:29:42;;;;;;;;;;;6.60;83.10;;;;;;6191261;23;19910;-83
2022/03/25 05:32:08;;;;;;;;;;;6.60;83.10;;;;;;6191288;23;19935;-83
2022/03/25 05:34:34;;;;;;;;;;;6.60;83.10;;;;;;6191347;23;19974;-85
2022/03/25 05:37:02;;;;;;;;;;;6.70;83.10;;;;;;6166461;23;20315;-85
2022/03/25 05:39:27;;;;;;;;;;;6.70;83.00;;;;;;6191336;23;20250;-84
2022/03/25 05:41:53;;;;;;;;;;;6.70;83.00;;;;;;6166462;23;19920;-84
2022/03/25 05:44:19;;;;;;;;;;;6.70;83.20;;;;;;6190907;23;20236;-84
2022/03/25 05:46:44;;;;;;;;;;;6.70;83.10;;;;;;6191482;23;19908;-84
2022/03/25 05:49:10;;;;;;;;;;;6.70;83.20;;;;;;6191392;23;19904;-84
2022/03/25 05:51:45;;;;;;;;;;;6.70;83.40;;;;;;6191360;23;19911;-84
2022/03/25 05:54:11;;;;;;;;;;;6.70;83.70;;;;;;6218257;23;19904;-84
2022/03/25 05:56:39;;;;;;;;;;;6.80;83.50;;;;;;6191322;23;19942;-84
2022/03/25 05:59:05;;;;;;;;;;;6.80;83.70;;;;;;6217892;23;20428;-85
2022/03/25 06:01:31;;;;;;;;;;;6.80;83.70;;;;;;6191751;23;19911;-85
2022/03/25 06:04:05;;;;;;;;;;;6.80;83.70;;;;;;6192690;23;19943;-84
2022/03/25 06:06:31;;;;;;;;;;;6.80;83.80;;;;;;6193270;23;19911;-85
2022/03/25 06:08:56;;;;;;;;;;;6.80;83.90;;;;;;6193433;23;19908;-84
2022/03/25 06:11:23;;;;;;;;;;;6.80;84.00;;;;;;6192623;23;19908;-86
2022/03/25 06:13:51;;;;;;;;;;;6.80;84.00;;;;;;6192597;23;20006;-85
2022/03/25 06:16:17;;;;;;;;;;;6.90;84.00;;;;;;6200771;22;19896;-83
2022/03/25 06:18:45;;;;;;;;;;;6.90;84.10;;;;;;6216979;23;19895;-85
2022/03/25 06:21:11;;;;;;;;;;;6.90;84.20;;;;;;6192581;23;19904;-86
2022/03/25 06:23:39;;;;;;;;;;;6.90;84.10;;;;;;6217561;23;19910;-88
2022/03/25 06:26:07;;;;;;;;;;;6.90;84.30;;;;;;6177718;23;19928;-86
2022/03/25 06:28:35;;;;;;;;;;;6.90;84.30;;;;;;6218968;23;19904;-85
2022/03/25 06:31:01;;;;;;;;;;;6.90;84.50;;;;;;6191263;23;19934;-85
2022/03/25 06:33:27;;;;;;;;;;;7.00;84.50;;;;;;6191079;23;19978;-86
2022/03/25 06:36:01;;;;;;;;;;;7.00;85.00;;;;;;6217592;23;20010;-86
2022/03/25 06:38:29;;;;;;;;;;;7.00;85.00;;;;;;6166152;23;19908;-87
2022/03/25 06:41:00;;;;;;;;;;;7.00;84.90;;;;;;6190615;23;19911;-87
2022/03/25 06:43:28;;;;;;;;;;;7.10;84.70;;;;;;6191864;23;19904;-89
2022/03/25 06:45:54;;;;;;;;;;;7.10;84.60;;;;;;6166207;23;19970;-88
2022/03/25 06:48:42;;;;;;;;;;;7.20;84.70;;;;;;6191493;23;19908;-88
2022/03/25 06:51:20;;;;;;;;;;;7.20;84.50;;;;;;6200108;23;19979;-86
2022/03/25 06:53:59;;;;;;;;;;;;;;;;;;;;;
2022/03/25 06:56:45;;;;;;;;;;;7.30;84.50;;;;;;6220480;23;20320;-86
2022/03/25 06:59:14;;;;;;;;;;;7.30;84.50;;;;;;6218444;23;19935;-85
2022/03/25 07:01:39;;;;;;;;;;;7.40;84.40;;;;;;6165953;23;19916;-85
2022/03/25 07:04:08;;;;;;;;;;;7.40;84.40;;;;;;6190454;23;19904;-87
2022/03/25 07:09:37;;;;;;;;;;;;;;;;;;;;;
2022/03/25 07:12:12;;;;;;;;;;;7.60;84.60;;;;;;6192621;23;19979;-86
2022/03/25 07:14:45;;;;;;;;;;;7.60;84.50;;;;;;6214241;23;19908;-86
2022/03/25 07:17:13;;;;;;;;;;;7.70;84.40;;;;;;6190130;23;19943;-85
2022/03/25 07:19:44;;;;;;;;;;;7.80;84.30;;;;;;6190272;23;19911;-85
2022/03/25 07:22:10;;;;;;;;;;;7.80;84.10;;;;;;6165817;23;19916;-85
2022/03/25 07:24:45;;;;;;;;;;;7.90;84.10;;;;;;6189485;23;20337;-85
2022/03/25 07:27:11;;;;;;;;;;;8.00;84.00;;;;;;6189832;23;19978;-85
2022/03/25 07:29:47;;;;;;;;;;;8.00;83.80;;;;;;6190408;23;19928;-85
2022/03/25 07:32:18;;;;;;;;;;;8.10;83.70;;;;;;6189847;23;19904;-85
2022/03/25 07:34:43;;;;;;;;;;;8.10;83.50;;;;;;6190559;23;19910;-85
2022/03/25 07:43:32;;;;;;;;;;;;;;;;;;;;;
2022/03/25 07:46:29;;;;;;;;;;;;;;;;;;;;;
2022/03/25 07:49:02;;;;;;;;;;;8.50;82.80;;;;;;6146983;23;19897;-86
2022/03/25 07:57:43;;;;;;;;;;;8.80;82.00;;;;;;6026610;23;19916;-86
2022/03/25 08:00:13;;;;;;;;;;;8.90;81.60;;;;;;6029950;23;19911;-86
2022/03/25 08:02:43;;;;;;;;;;;9.00;81.50;;;;;;6040322;23;19949;-85
2022/03/25 08:05:13;;;;;;;;;;;9.00;81.30;;;;;;6087546;23;20235;-86
2022/03/25 08:07:43;;;;;;;;;;;9.10;80.50;;;;;;6182080;23;19905;-86
2022/03/25 08:10:28;;;;;;;;;;;9.20;80.10;;;;;;6157840;23;19909;-85
2022/03/25 08:13:12;;;;;;;;;;;9.30;79.80;;;;;;6133898;23;19915;-86
2022/03/25 08:15:45;;;;;;;;;;;9.30;79.20;;;;;;6182652;23;19904;-86
2022/03/25 08:18:16;;;;;;;;;;;9.40;79.10;;;;;;6183012;23;19952;-85
2022/03/25 08:20:57;;;;;;;;;;;9.40;78.60;;;;;;6183677;23;19951;-85
2022/03/25 08:29:12;;;;;;;;;;;9.60;78.20;;;;;;6158526;23;19911;-86
2022/03/25 08:31:40;;;;;;;;;;;9.70;78.10;;;;;;6182175;23;19912;-85
2022/03/25 08:34:08;;;;;;;;;;;9.80;78.00;;;;;;6156700;23;19909;-86
2022/03/25 08:36:47;;;;;;;;;;;9.90;77.40;;;;;;6181495;23;19904;-85
2022/03/25 08:39:16;;;;;;;;;;;9.90;77.10;;;;;;6182054;23;19905;-85
2022/03/25 08:41:59;;;;;;;;;;;10.00;77.00;;;;;;6181783;23;19920;-85
2022/03/25 08:44:49;;;;;;;;;;;10.10;77.10;;;;;;6156898;23;19940;-86
2022/03/25 08:47:15;;;;;;;;;;;10.20;77.00;;;;;;6156551;23;19928;-86
2022/03/25 08:49:43;;;;;;;;;;;10.20;76.70;;;;;;6156994;23;20229;-86
2022/03/25 08:52:17;;;;;;;;;;;10.30;76.50;;;;;;6156944;23;19912;-85
2022/03/25 08:54:45;;;;;;;;;;;10.40;76.50;;;;;;6157589;23;19909;-85
2022/03/25 08:57:15;;;;;;;;;;;10.50;76.20;;;;;;6156519;23;19989;-85
2022/03/25 08:59:51;;;;;;;;;;;10.50;75.60;;;;;;6157265;23;19909;-86
2022/03/25 09:02:16;;;;;;;;;;;10.60;75.50;;;;;;6156177;23;19959;-86
2022/03/25 09:04:51;;;;;;;;;;;10.70;75.30;;;;;;6156541;23;19904;-85
2022/03/25 09:10:17;;;;;;;;;;;10.90;74.10;;;;;;6151822;23;20312;-86
2022/03/25 09:12:51;;;;;;;;;;;10.90;74.30;;;;;;6156597;23;19944;-86
2022/03/25 09:15:21;;;;;;;;;;;11.00;74.30;;;;;;6158200;23;19911;-86
2022/03/25 09:17:50;;;;;;;;;;;11.10;74.10;;;;;;6133198;23;19909;-85
2022/03/25 09:20:39;;;;;;;;;;;11.10;73.60;;;;;;6158917;23;19995;-86
2022/03/25 09:23:27;;;;;;;;;;;11.20;72.90;;;;;;6164836;23;19916;-86
2022/03/25 09:25:57;;;;;;;;;;;11.30;72.20;;;;;;6189682;23;19899;-86
2022/03/25 09:28:36;;;;;;;;;;;11.40;71.60;;;;;;6183942;23;19896;-86
2022/03/25 09:35:08;;;;;;;;;;;11.60;70.50;;;;;;6162079;23;20342;-84
2022/03/25 09:36:39;;;;;;;;;;;11.70;69.70;;;;;;6157962;23;19912;-85
2022/03/25 09:39:08;;;;;;;;;;;11.70;70.20;;;;;;6156104;23;19908;-86
2022/03/25 09:41:37;;;;;;;;;;;11.80;70.50;;;;;;6156172;23;19967;-85
2022/03/25 09:44:16;;;;;;;;;;;11.80;70.60;;;;;;6156178;23;19983;-86
2022/03/25 09:46:42;;;;;;;;;;;12.00;70.60;;;;;;6181923;23;19924;-86
2022/03/25 09:52:30;;;;;;;;;;;;;;;;;;;;;
2022/03/25 09:55:13;;;;;;;;;;;12.20;68.90;;;;;;6187697;23;20052;-86
2022/03/25 09:57:59;;;;;;;;;;;12.30;68.70;;;;;;6211686;23;19911;-85
2022/03/25 10:00:46;;;;;;;;;;;12.40;68.80;;;;;;6195069;23;20010;-85
2022/03/25 10:03:41;;;;;;;;;;;12.40;69.10;;;;;;6211206;23;20300;-86
2022/03/25 10:06:11;;;;;;;;;;;12.50;68.40;;;;;;6171936;23;19905;-88
2022/03/25 10:08:54;;;;;;;;;;;12.60;68.10;;;;;;6211001;23;19927;-87
2022/03/25 10:11:43;;;;;;;;;;;12.70;68.20;;;;;;6211515;23;19904;-86
2022/03/25 10:14:23;;;;;;;;;;;12.70;67.90;;;;;;6184729;23;19916;-87
2022/03/25 10:16:55;;;;;;;;;;;12.80;67.60;;;;;;6211223;23;19904;-87
2022/03/25 10:19:24;;;;;;;;;;;12.90;68.00;;;;;;6210938;23;20298;-88
2022/03/25 10:21:53;;;;;;;;;;;13.00;68.30;;;;;;6210465;23;19912;-87
2022/03/25 10:24:35;;;;;;;;;;;13.00;68.40;;;;;;6210686;23;20299;-88
2022/03/25 10:27:07;;;;;;;;;;;13.10;68.70;;;;;;6210877;23;19935;-87
2022/03/25 10:29:41;;;;;;;;;;;13.20;68.80;;;;;;6211099;23;19911;-87
2022/03/25 10:32:29;;;;;;;;;;;13.30;68.80;;;;;;6211526;23;19904;-89
2022/03/25 10:35:10;;;;;;;;;;;13.40;68.70;;;;;;6211688;23;19915;-88
2022/03/25 10:38:04;;;;;;;;;;;13.50;68.60;;;;;;6185821;23;19916;-90
2022/03/25 10:40:47;;;;;;;;;;;13.60;68.40;;;;;;6211111;23;20342;-88
2022/03/25 10:43:15;;;;;;;;;;;13.70;68.40;;;;;;6211430;23;19919;-89
2022/03/25 10:45:45;;;;;;;;;;;13.70;68.30;;;;;;6198042;23;19923;-88
2022/03/25 10:48:29;;;;;;;;;;;13.80;68.10;;;;;;6191593;23;20312;-88
2022/03/25 10:51:04;;;;;;;;;;;13.90;68.00;;;;;;6191727;23;19915;-87
2022/03/25 10:53:50;;;;;;;;;;;14.00;67.40;;;;;;6191683;23;20314;-88
2022/03/25 10:56:15;;;;;;;;;;;14.00;67.20;;;;;;6177016;23;20311;-88
2022/03/25 10:58:57;;;;;;;;;;;14.00;67.50;;;;;;6191113;23;19910;-88
2022/03/25 11:01:23;;;;;;;;;;;14.10;67.50;;;;;;6191174;23;19940;-87
2022/03/25 11:03:55;;;;;;;;;;;14.20;67.60;;;;;;6191592;23;19919;-87
2022/03/25 11:06:23;;;;;;;;;;;14.20;67.70;;;;;;6196234;23;19904;-87
2022/03/25 11:08:52;;;;;;;;;;;14.20;67.40;;;;;;6237364;23;19904;-88
2022/03/25 11:11:18;;;;;;;;;;;14.30;67.70;;;;;;6236250;23;19910;-88
2022/03/25 11:13:47;;;;;;;;;;;14.30;67.70;;;;;;6213745;23;19914;-87
2022/03/25 11:16:19;;;;;;;;;;;14.40;66.80;;;;;;6211614;23;19911;-87
2022/03/25 11:21:44;;;;;;;;;;;14.50;67.00;;;;;;6162541;23;19947;-89
2022/03/25 11:24:31;;;;;;;;;;;;;;;;;;;;;
2022/03/25 11:27:35;;;;;;;;;;;14.60;66.80;;;;;;6219937;23;19952;-88
2022/03/25 11:30:16;;;;;;;;;;;;;;;;;;;;;
2022/03/25 11:33:06;;;;;;;;;;;14.70;66.50;;;;;;6218977;23;19983;-86
2022/03/25 11:35:49;;;;;;;;;;;14.80;66.00;;;;;;6192287;23;19968;-86
2022/03/25 11:38:19;;;;;;;;;;;14.80;66.00;;;;;;6191820;23;19907;-87
2022/03/25 11:40:51;;;;;;;;;;;14.90;65.70;;;;;;6192131;23;19936;-86
2022/03/25 11:43:27;;;;;;;;;;;14.90;65.90;;;;;;6218929;23;19995;-86
2022/03/25 11:45:58;;;;;;;;;;;14.90;65.40;;;;;;6191722;23;19916;-87
2022/03/25 11:48:33;;;;;;;;;;;15.00;64.90;;;;;;6218490;23;19907;-86
2022/03/25 11:51:00;;;;;;;;;;;15.10;64.50;;;;;;6192245;23;20342;-86
2022/03/25 11:53:26;;;;;;;;;;;15.10;64.80;;;;;;6191956;23;20362;-86
2022/03/25 11:56:01;;;;;;;;;;;15.10;64.80;;;;;;6191714;23;19908;-85
2022/03/25 11:58:35;;;;;;;;;;;15.10;64.50;;;;;;6191966;23;20226;-86
2022/03/25 12:01:04;;;;;;;;;;;15.20;63.60;;;;;;6191936;23;20274;-85
2022/03/25 12:03:39;;;;;;;;;;;15.30;63.50;;;;;;6191771;23;20065;-85
2022/03/25 12:06:08;;;;;;;;;;;15.30;62.70;;;;;;6218843;23;19908;-85
2022/03/25 12:08:47;;;;;;;;;;;;;;;;;;;;;
2022/03/25 12:11:14;;;;;;;;;;;15.40;62.70;;;;;;6194975;23;20390;-84
2022/03/25 12:13:55;;;;;;;;;;;15.50;62.80;;;;;;6167294;23;20211;-86
2022/03/25 12:16:45;;;;;;;;;;;15.50;63.00;;;;;;6192499;23;19904;-85
2022/03/25 12:25:23;;;;;;;;;;;15.70;63.40;;;;;;6098212;23;19912;-86
2022/03/25 12:27:51;;;;;;;;;;;15.70;63.20;;;;;;6182668;23;19911;-85
2022/03/25 12:30:19;;;;;;;;;;;15.80;63.10;;;;;;6193934;23;19950;-86
2022/03/25 12:32:48;;;;;;;;;;;15.80;62.90;;;;;;6194344;23;19908;-85
2022/03/25 12:35:16;;;;;;;;;;;15.80;62.90;;;;;;6196503;23;19947;-85
2022/03/25 12:37:56;;;;;;;;;;;15.90;62.90;;;;;;6199383;23;19930;-84
2022/03/25 12:40:32;;;;;;;;;;;15.90;63.00;;;;;;6206310;23;19915;-86
2022/03/25 12:43:03;;;;;;;;;;;15.90;62.80;;;;;;6208455;23;19912;-85
2022/03/25 12:45:39;;;;;;;;;;;16.00;62.80;;;;;;6236207;23;19916;-85
2022/03/25 12:48:51;;;;;;;;;;;16.00;62.20;;;;;;6181751;23;19912;-85
2022/03/25 12:54:32;;;;;;;;;;;16.00;62.00;;;;;;6096950;23;19940;-86
2022/03/25 12:56:59;;;;;;;;;;;16.10;61.60;;;;;;6096746;23;19936;-85
2022/03/25 12:59:33;;;;;;;;;;;16.10;61.80;;;;;;6099126;23;19909;-86
2022/03/25 13:02:31;;;;;;;;;;;16.20;60.90;;;;;;6091056;23;20356;-85
2022/03/25 13:05:39;;;;;;;;;;;;;;;;;;;;;
2022/03/25 13:10:57;;;;;;;;;;;16.20;59.60;;;;;;6218426;23;20230;-85
2022/03/25 13:13:23;;;;;;;;;;;16.30;59.90;;;;;;6218423;23;19904;-85
2022/03/25 13:15:59;;;;;;;;;;;16.30;60.20;;;;;;6191492;23;19904;-85
2022/03/25 13:18:32;;;;;;;;;;;16.30;60.50;;;;;;6191105;23;19908;-85
2022/03/25 13:21:01;;;;;;;;;;;16.20;59.90;;;;;;6192026;23;19911;-85
2022/03/25 13:23:28;;;;;;;;;;;16.30;59.40;;;;;;6191076;23;19912;-86
2022/03/25 13:25:53;;;;;;;;;;;16.30;59.30;;;;;;6217866;23;20306;-85
2022/03/25 13:28:19;;;;;;;;;;;16.40;59.40;;;;;;6191170;23;19910;-85
2022/03/25 13:30:47;;;;;;;;;;;16.40;59.10;;;;;;6190724;23;19911;-86
2022/03/25 13:33:14;;;;;;;;;;;16.40;58.80;;;;;;6191469;23;19904;-85
2022/03/25 13:35:40;;;;;;;;;;;16.40;58.60;;;;;;6190588;23;20298;-85
2022/03/25 13:38:22;;;;;;;;;;;16.50;58.70;;;;;;6191899;23;19911;-85
2022/03/25 13:40:52;;;;;;;;;;;16.50;59.20;;;;;;6190950;23;19908;-85
2022/03/25 13:43:21;;;;;;;;;;;16.50;59.00;;;;;;6191015;23;20003;-85
2022/03/25 13:46:06;;;;;;;;;;;16.50;58.90;;;;;;6216753;23;19916;-85
2022/03/25 13:48:51;;;;;;;;;;;16.50;59.10;;;;;;6190602;23;19916;-85
2022/03/25 13:51:21;;;;;;;;;;;16.60;58.30;;;;;;6191019;23;19904;-85
2022/03/25 13:53:47;;;;;;;;;;;16.60;58.30;;;;;;6190377;23;19979;-85
2022/03/25 13:56:22;;;;;;;;;;;16.60;58.10;;;;;;6217427;23;19903;-85
2022/03/25 13:58:52;;;;;;;;;;;16.70;58.60;;;;;;6190761;23;20376;-85
2022/03/25 14:01:33;;;;;;;;;;;16.70;58.80;;;;;;6190339;23;19908;-85
2022/03/25 14:04:04;;;;;;;;;;;16.80;58.20;;;;;;6191298;23;19904;-85
2022/03/25 14:06:35;;;;;;;;;;;16.70;58.30;;;;;;6190932;23;19915;-85
2022/03/25 14:09:07;;;;;;;;;;;16.80;57.20;;;;;;6215845;23;20277;-85
2022/03/25 14:11:42;;;;;;;;;;;16.80;56.90;;;;;;6190526;23;19908;-85
2022/03/25 14:14:15;;;;;;;;;;;16.80;56.80;;;;;;6190220;23;20307;-85
2022/03/25 14:16:40;;;;;;;;;;;16.90;57.20;;;;;;6190379;23;19931;-85
2022/03/25 14:19:16;;;;;;;;;;;16.90;55.60;;;;;;6190861;23;19904;-85
2022/03/25 14:21:49;;;;;;;;;;;16.90;55.80;;;;;;6189973;23;19919;-85
2022/03/25 14:24:34;;;;;;;;;;;16.90;56.30;;;;;;6191226;23;20273;-88
2022/03/25 14:27:10;;;;;;;;;;;16.90;55.70;;;;;;6193793;23;19950;-88
2022/03/25 14:29:37;;;;;;;;;;;17.00;56.10;;;;;;6191497;23;19904;-88
2022/03/25 14:32:02;;;;;;;;;;;16.90;55.60;;;;;;6191180;23;20212;-86
2022/03/25 14:34:28;;;;;;;;;;;17.00;55.60;;;;;;6218202;23;19911;-86
2022/03/25 14:36:54;;;;;;;;;;;17.10;54.70;;;;;;6191854;23;19911;-87
2022/03/25 14:39:20;;;;;;;;;;;17.10;54.80;;;;;;6192837;23;19904;-86
2022/03/25 14:41:48;;;;;;;;;;;17.10;55.00;;;;;;6192746;23;19916;-86
2022/03/25 14:44:19;;;;;;;;;;;17.10;52.50;;;;;;6203944;23;19888;-86
2022/03/25 14:46:56;;;;;;;;;;;17.10;52.10;;;;;;6213002;23;19928;-86
2022/03/25 14:49:31;;;;;;;;;;;17.10;52.40;;;;;;6238556;23;19912;-87
2022/03/25 14:52:06;;;;;;;;;;;17.10;51.70;;;;;;6213734;23;19912;-89
2022/03/25 14:54:40;;;;;;;;;;;17.10;50.70;;;;;;6228496;23;19908;-88
2022/03/25 14:57:30;;;;;;;;;;;17.10;50.20;;;;;;6163224;23;20315;-88
2022/03/25 15:00:04;;;;;;;;;;;17.10;50.50;;;;;;6185519;23;19940;-87
2022/03/25 15:02:54;;;;;;;;;;;17.10;50.00;;;;;;6214864;23;20381;-87
2022/03/25 15:05:19;;;;;;;;;;;17.10;50.00;;;;;;6190077;23;19905;-87
2022/03/25 15:08:01;;;;;;;;;;;;;;;;;;;;;
2022/03/25 15:10:27;;;;;;;;;;;17.00;51.20;;;;;;6189843;23;20000;-87
2022/03/25 15:13:13;;;;;;;;;;;17.00;51.80;;;;;;6189837;23;20143;-86
2022/03/25 15:19:10;;;;;;;;;;;17.00;52.00;;;;;;6187751;22;20024;-88
2022/03/25 15:21:39;;;;;;;;;;;17.10;51.70;;;;;;6213866;23;19994;-88
2022/03/25 15:24:12;;;;;;;;;;;17.30;52.00;;;;;;6213260;23;19987;-88
2022/03/25 15:26:41;;;;;;;;;;;17.40;51.40;;;;;;6213928;23;19954;-87
2022/03/25 15:29:16;;;;;;;;;;;;;;;;;;;;;
2022/03/25 15:35:05;;;;;;;;;;;;;;;;;;;;;
2022/03/25 15:37:44;;;;;;;;;;;17.30;51.70;;;;;;6192947;23;19920;-87
2022/03/25 15:40:15;;;;;;;;;;;17.30;52.00;;;;;;6215143;23;19987;-87
2022/03/25 15:42:44;;;;;;;;;;;17.20;52.50;;;;;;6214177;23;19912;-87
2022/03/25 15:45:20;;;;;;;;;;;17.20;52.70;;;;;;6215123;23;19911;-88
2022/03/25 15:47:53;;;;;;;;;;;17.20;53.10;;;;;;6223332;23;19924;-87
2022/03/25 15:50:25;;;;;;;;;;;17.20;52.90;;;;;;6226432;23;19904;-88
2022/03/25 15:55:57;;;;;;;;;;;17.10;53.00;;;;;;6210618;23;19916;-88
2022/03/25 15:58:27;;;;;;;;;;;17.10;53.00;;;;;;6231395;23;19911;-88
2022/03/25 16:00:55;;;;;;;;;;;17.10;53.00;;;;;;6237881;23;19904;-88
2022/03/25 16:03:29;;;;;;;;;;;17.00;53.00;;;;;;6239952;23;19959;-87